METAR AND TAF INFORMATION
METAR FOR NWWW
ADDS - METARS form results

(1529 UTC 29 May 2020)
Data provider http://aviationweather.gov/metar/data/
 
METAR text: NWWW 291500Z AUTO 25003KT 190V320 9999 ///TCU 20/19 Q1015 BECMG FEW040
Conditions at: NWWW (LA TONTOUTA NLLE, WS) observed 1500 UTC 29 May 2020
Temperature: 20.0°C (68°F)
Dewpoint: 19.0°C (66°F) [RH = 94%]
Pressure (altimeter): 29.97 inches Hg (1015.0 mb)
Winds: from the WSW (250 degrees) at 3 MPH (3 knots; 1.5 m/s)
Visibility: 6 or more miles (10+ km)
Ceiling: unknown
Clouds: missing
Weather: no significant weather observed at this time

METAR text: NWWW 291430Z AUTO VRB02KT 9999 ///TCU 20/19 Q1015 BECMG FEW040
Conditions at: NWWW (LA TONTOUTA NLLE, WS) observed 1430 UTC 29 May 2020
Temperature: 20.0°C (68°F)
Dewpoint: 19.0°C (66°F) [RH = 94%]
Pressure (altimeter): 29.97 inches Hg (1015.0 mb)
Winds: variable direction winds at 2 MPH (2 knots; 1.0 m/s)
Visibility: 6 or more miles (10+ km)
Ceiling: unknown
Clouds: missing
Weather: no significant weather observed at this time

Forecast for: NWWW (LA TONTOUTA NLLE, WS)
Text: TAF NWWW 291100Z 2912/3012 VRB02KT 9999 FEW040
Forecast period: 1200 UTC 29 May 2020 to 1200 UTC 30 May 2020
Forecast type: FROM: standard forecast or significant change
Winds: variable direction winds at 2 MPH (2 knots; 1.0 m/s)
Visibility: 6 or more miles 10+ km)
Ceiling: at least 12,000 feet AGL
Clouds: few clouds at 4000 feet AGL
Weather: no significant weather forecast for this period
Text: TEMPO 3001/3012 4000 SHRA BKN012 FEW020CB
Forecast period: 0100 to 1200 UTC 30 May 2020
Forecast type: TEMPORARY: The following changes expected for less than half the time period
Visibility: 2.49 miles (4.01 km)
Ceiling: 1200 feet AGL
Clouds: broken clouds at 1200 feet AGL
few clouds at 2000 feet AGL
Weather: SHRA  (rain showers)
Text: PROB40
Forecast period: 0200 to 1200 UTC 30 May 2020
Forecast type: TEMPORARY: The following changes expected for less than half the time period
Visibility: 0.93 miles (1.50 km)
Ceiling: 800 feet AGL
Clouds: broken clouds at 800 feet AGL
scattered clouds at 1600 feet AGL
Weather: +TSRA  (heavy rain associated with thunderstorm(s))

 AIRPORT MAP

 RUNWAY INFORMATION
Runway 11 Runway length 10663 ft Runway width 148 ft
Runway elevation 30 ft Runway displaced threshold 0 ft Runway heading 121
Runway 29 Runway length 10663 ft Runway width 148 ft
Runway elevation 52 ft Runway displaced threshold 0 ft Runway heading 301

 AIRPORT FREQUENCIES
Type APP Name TONTOUTA A Frequency 119.7 MHZ
Type GND Name GND Frequency 121.7 MHZ
Type INFO Name TONTOUTA I Frequency 128.2 MHZ
Type MISC Name VDF Frequency 118.1 MHZ
Type TWR Name TONTOUTA T Frequency 118.1 MHZ

 AIRPORT NEAR NAVIGATION AIDS
Type NDB Name La Tontouta Frequency 338 KHZ
Type NDB Name La Tontouta Frequency 354 KHZ
Type VOR-DME Name La Tontouta Frequency 112900 KHZ
Type NDB Name La Tontouta Frequency 326 KHZ